Time;durP1;ratioP1;P1;durP2;ratioP2;P2;SDS_P1;SDS_P2;PMS_P1;PMS_P2;Temp;Humidity;BMP_temperature;BMP_pressure;BME280_temperature;BME280_humidity;BME280_pressure;Samples;Min_cycle;Max_cycle;Signal;HPM_P1;HPM_P2
2022/10/04 00:01:13;;;;;;;6.15;2.60;;;15.20;90.00;;;;;;1865437;77;21058;-59
2022/10/04 00:03:44;;;;;;;3.72;2.50;;;15.20;90.10;;;;;;1897286;75;21143;-59
2022/10/04 00:06:19;;;;;;;3.95;2.85;;;15.20;89.90;;;;;;1858740;77;21466;-59
2022/10/04 00:08:53;;;;;;;5.65;3.05;;;15.10;89.70;;;;;;1864006;77;21495;-59
2022/10/04 00:11:26;;;;;;;;;;;15.10;89.80;;;;;;1860332;77;21059;-59
2022/10/04 00:14:01;;;;;;;6.65;2.90;;;15.00;90.00;;;;;;1865344;77;20133;-59
2022/10/04 00:16:30;;;;;;;;;;;14.90;89.30;;;;;;1867187;77;21032;-59
2022/10/04 00:19:17;;;;;;;3.87;2.62;;;14.90;89.50;;;;;;1858709;77;20106;-59
2022/10/04 00:21:56;;;;;;;5.87;2.85;;;14.90;89.70;;;;;;1897018;76;21113;-59
2022/10/04 00:24:30;;;;;;;5.00;3.25;;;14.90;90.00;;;;;;1897343;76;21052;-59
2022/10/04 00:27:11;;;;;;;3.77;2.80;;;14.80;90.10;;;;;;1858980;77;21019;-59
2022/10/04 00:29:41;;;;;;;8.40;3.72;;;14.90;90.20;;;;;;1897194;76;21684;-59
2022/10/04 00:32:16;;;;;;;5.25;3.25;;;14.90;90.10;;;;;;1858829;77;21106;-59
2022/10/04 00:34:47;;;;;;;6.37;3.27;;;14.90;90.10;;;;;;1865568;77;21490;-59
2022/10/04 00:37:22;;;;;;;4.30;3.30;;;14.90;90.20;;;;;;1897222;76;21518;-59
2022/10/04 00:40:15;;;;;;;4.15;3.10;;;14.90;90.30;;;;;;1858755;77;21050;-59
2022/10/04 00:42:55;;;;;;;6.75;3.15;;;14.90;90.30;;;;;;1865339;77;21555;-59
2022/10/04 00:45:36;;;;;;;10.55;4.78;;;14.90;90.20;;;;;;1865412;77;21482;-59
2022/10/04 00:48:27;;;;;;;10.18;3.83;;;14.90;90.00;;;;;;1897337;76;21026;-59
2022/10/04 00:51:19;;;;;;;10.35;4.17;;;14.90;90.00;;;;;;1847275;77;21133;-59
2022/10/04 00:53:56;;;;;;;6.30;3.35;;;14.80;90.00;;;;;;1924958;74;21127;-59
2022/10/04 00:56:28;;;;;;;5.17;3.30;;;14.70;90.30;;;;;;1924749;74;21053;-59
2022/10/04 00:59:05;;;;;;;7.40;3.65;;;14.70;90.30;;;;;;1924879;74;21428;-59
2022/10/04 01:01:37;;;;;;;4.67;2.83;;;14.70;90.40;;;;;;1924393;74;21492;-59
2022/10/04 01:04:09;;;;;;;5.40;3.10;;;14.70;90.50;;;;;;1927653;74;21033;-59
2022/10/04 01:06:40;;;;;;;5.92;3.40;;;14.70;90.60;;;;;;1927253;74;21053;-59
2022/10/04 01:09:11;;;;;;;5.40;2.77;;;14.80;90.60;;;;;;1884485;76;21046;-59
2022/10/04 01:11:46;;;;;;;4.62;3.22;;;14.80;90.60;;;;;;1884537;76;21043;-59
2022/10/04 01:14:21;;;;;;;7.03;2.50;;;14.80;90.20;;;;;;1924411;74;21107;-59
2022/10/04 01:16:51;;;;;;;4.60;2.52;;;14.80;89.80;;;;;;1925044;74;21022;-59
2022/10/04 01:19:26;;;;;;;5.05;2.47;;;14.60;90.10;;;;;;1924805;74;21029;-59
2022/10/04 01:22:04;;;;;;;2.58;2.30;;;14.60;90.40;;;;;;1925024;74;21468;-59
2022/10/04 01:24:39;;;;;;;5.62;2.33;;;14.60;90.60;;;;;;1921316;74;21069;-59
2022/10/04 01:27:36;;;;;;;2.47;2.27;;;14.70;90.70;;;;;;1888092;76;21057;-59
2022/10/04 01:30:08;;;;;;;2.98;2.35;;;14.80;90.70;;;;;;1824183;76;21035;-59
2022/10/04 01:32:39;;;;;;;3.52;2.40;;;14.80;90.60;;;;;;1924744;74;21017;-59
2022/10/04 01:35:10;;;;;;;7.72;3.00;;;14.90;91.00;;;;;;1927721;74;21021;-59
2022/10/04 01:37:40;;;;;;;5.55;3.02;;;14.90;90.60;;;;;;1927693;74;20997;-59
2022/10/04 01:40:10;;;;;;;4.10;2.67;;;14.90;90.60;;;;;;1927680;74;21025;-59
2022/10/04 01:42:48;;;;;;;7.40;2.98;;;14.90;90.60;;;;;;1927870;74;21095;-59
2022/10/04 01:45:23;;;;;;;5.10;2.50;;;14.90;90.60;;;;;;1926346;74;21026;-59
2022/10/04 01:47:56;;;;;;;4.12;2.30;;;14.90;90.60;;;;;;1851371;77;21151;-59
2022/10/04 01:50:36;;;;;;;6.12;2.42;;;14.90;90.60;;;;;;1852259;77;21045;-59
2022/10/04 01:53:26;;;;;;;10.45;2.77;;;14.90;90.70;;;;;;1839075;78;21132;-59
2022/10/04 01:56:04;;;;;;;4.53;2.40;;;14.90;90.70;;;;;;1888055;76;21081;-59
2022/10/04 01:58:36;;;;;;;5.53;3.00;;;14.80;90.50;;;;;;1839121;78;21074;-59
2022/10/04 02:01:11;;;;;;;4.25;2.50;;;14.80;90.50;;;;;;1853352;77;21047;-59
2022/10/04 02:03:40;;;;;;;;;;;14.70;90.60;;;;;;1841892;77;21101;-59
2022/10/04 02:06:12;;;;;;;2.85;2.25;;;14.70;90.70;;;;;;1848949;77;20115;-59
2022/10/04 02:08:43;;;;;;;5.83;2.90;;;14.70;90.60;;;;;;1842405;78;21112;-59
2022/10/04 02:11:15;;;;;;;3.35;2.42;;;14.70;90.70;;;;;;1872673;77;21858;-59
2022/10/04 02:13:46;;;;;;;6.55;2.50;;;14.70;90.80;;;;;;1928506;74;21104;-59
2022/10/04 02:16:17;;;;;;;6.78;2.47;;;14.80;90.80;;;;;;1928565;74;21467;-59
2022/10/04 02:18:46;;;;;;;6.17;2.58;;;14.70;90.90;;;;;;1928483;74;21029;-59
2022/10/04 02:21:17;;;;;;;4.75;2.60;;;14.60;90.60;;;;;;1928434;74;21045;-59
2022/10/04 02:23:48;;;;;;;4.83;2.70;;;14.60;90.80;;;;;;1928639;74;21057;-59
2022/10/04 02:26:17;;;;;;;6.62;2.65;;;14.60;90.90;;;;;;1928694;74;21001;-59
2022/10/04 02:28:48;;;;;;;4.87;2.95;;;14.60;91.10;;;;;;1928616;74;21524;-59
2022/10/04 02:33:55;;;;;;;4.12;2.70;;;14.50;90.80;;;;;;1886164;74;21507;-60
2022/10/04 02:36:29;;;;;;;5.10;2.72;;;14.50;91.10;;;;;;1928646;74;21476;-60
2022/10/04 02:39:01;;;;;;;5.20;3.00;;;14.40;91.20;;;;;;1928915;74;21044;-60
2022/10/04 02:41:39;;;;;;;4.45;2.50;;;14.50;91.20;;;;;;1928652;74;21037;-60
2022/10/04 02:44:20;;;;;;;3.52;2.27;;;14.40;90.80;;;;;;1928640;74;21083;-60
2022/10/04 02:47:10;;;;;;;2.87;2.27;;;14.40;90.90;;;;;;1927523;74;21099;-60
2022/10/04 02:49:45;;;;;;;3.12;2.37;;;14.30;90.90;;;;;;1928601;74;21044;-60
2022/10/04 02:52:25;;;;;;;2.42;2.12;;;14.20;91.10;;;;;;1936601;74;21061;-60
2022/10/04 02:55:06;;;;;;;3.83;2.27;;;14.20;91.10;;;;;;1937521;74;21045;-60
2022/10/04 02:57:36;;;;;;;8.73;3.42;;;14.20;91.00;;;;;;1894398;75;21036;-60
2022/10/04 03:00:13;;;;;;;11.95;3.75;;;14.20;91.10;;;;;;1897045;76;21042;-60
2022/10/04 03:02:44;;;;;;;5.55;3.05;;;14.20;91.00;;;;;;1897090;76;21008;-60
2022/10/04 03:05:14;;;;;;;6.60;3.02;;;14.20;91.00;;;;;;1854454;77;21615;-60
2022/10/04 03:07:44;;;;;;;6.78;3.25;;;14.20;91.00;;;;;;1897099;76;21048;-60
2022/10/04 03:10:14;;;;;;;3.67;3.10;;;14.20;91.10;;;;;;1858587;77;21070;-61
2022/10/04 03:12:43;;;;;;;4.58;3.00;;;14.20;90.80;;;;;;1897175;76;21084;-60
2022/10/04 03:15:13;;;;;;;9.73;4.08;;;14.20;91.10;;;;;;1858608;77;21051;-60
2022/10/04 03:17:43;;;;;;;13.90;5.08;;;14.20;91.20;;;;;;1897100;76;21042;-61
2022/10/04 03:20:19;;;;;;;13.53;5.60;;;14.20;91.20;;;;;;1858600;77;21023;-61
2022/10/04 03:22:46;;;;;;;12.80;4.97;;;14.30;91.20;;;;;;1897020;76;21541;-60
2022/10/04 03:25:20;;;;;;;24.05;7.40;;;14.30;91.20;;;;;;1858587;77;21027;-60
2022/10/04 03:27:52;;;;;;;12.63;5.50;;;14.30;91.10;;;;;;1896495;76;21131;-60
2022/10/04 03:30:21;;;;;;;9.10;4.22;;;14.30;91.10;;;;;;1858560;77;21043;-60
2022/10/04 03:32:51;;;;;;;8.55;4.62;;;14.40;91.30;;;;;;1865211;77;21086;-61
2022/10/04 03:35:26;;;;;;;15.38;5.03;;;14.40;91.30;;;;;;1897070;76;21039;-61
2022/10/04 03:37:57;;;;;;;10.88;4.62;;;14.40;91.20;;;;;;1858725;77;21137;-61
2022/10/04 03:40:29;;;;;;;7.37;4.05;;;14.40;90.90;;;;;;1897120;76;21049;-60
2022/10/04 03:43:01;;;;;;;6.22;3.55;;;14.30;90.90;;;;;;1858674;77;21466;-60
2022/10/04 03:45:31;;;;;;;8.05;4.03;;;14.20;91.10;;;;;;1897133;76;21099;-61
2022/10/04 03:48:03;;;;;;;7.58;3.72;;;14.20;91.20;;;;;;1858578;77;21051;-60
2022/10/04 03:50:36;;;;;;;5.95;3.17;;;14.30;91.30;;;;;;1864407;77;21513;-61
2022/10/04 03:53:10;;;;;;;9.70;3.33;;;14.30;91.30;;;;;;1924584;74;21045;-60
2022/10/04 03:55:41;;;;;;;;;;;14.40;91.30;;;;;;1927466;74;21030;-60
2022/10/04 03:58:16;;;;;;;9.38;3.42;;;14.40;91.20;;;;;;1924559;74;20110;-60
2022/10/04 04:00:48;;;;;;;10.48;4.67;;;14.50;90.90;;;;;;1924716;74;21033;-60
2022/10/04 04:03:19;;;;;;;12.45;3.85;;;14.40;90.60;;;;;;1918931;74;21491;-60
2022/10/04 04:05:54;;;;;;;7.55;5.20;;;14.30;90.40;;;;;;1924660;74;20998;-60
2022/10/04 04:08:24;;;;;;;;;;;14.10;90.50;;;;;;1930551;74;21041;-60
2022/10/04 04:10:55;;;;;;;8.23;3.87;;;14.00;90.30;;;;;;1927352;74;20175;-60
2022/10/04 04:13:43;;;;;;;5.78;3.08;;;13.90;90.60;;;;;;1851147;77;21495;-60
2022/10/04 04:16:13;;;;;;;3.20;2.40;;;13.90;90.90;;;;;;1845072;78;21512;-60
2022/10/04 04:18:44;;;;;;;4.45;2.77;;;14.00;91.10;;;;;;1846656;78;21109;-60
2022/10/04 04:21:17;;;;;;;8.85;3.42;;;14.10;91.10;;;;;;1924719;74;21061;-60
2022/10/04 04:23:49;;;;;;;8.53;3.25;;;14.10;91.10;;;;;;1924555;74;20998;-60
2022/10/04 04:26:33;;;;;;;5.37;2.62;;;14.20;91.10;;;;;;1924221;74;21472;-60
2022/10/04 04:29:22;;;;;;;3.55;2.52;;;14.30;90.90;;;;;;1927659;74;21103;-60
2022/10/04 04:32:03;;;;;;;15.35;3.12;;;14.30;90.50;;;;;;1851171;77;21053;-61
2022/10/04 04:34:38;;;;;;;6.83;2.90;;;14.30;90.60;;;;;;1924664;74;21099;-60
2022/10/04 04:37:10;;;;;;;8.10;2.58;;;14.30;90.50;;;;;;1904113;74;21111;-60
2022/10/04 04:39:50;;;;;;;9.83;3.50;;;14.30;90.30;;;;;;1924689;74;21083;-61
2022/10/04 04:42:22;;;;;;;5.83;2.80;;;14.20;90.20;;;;;;1927124;74;21045;-61
2022/10/04 04:44:56;;;;;;;5.53;2.47;;;14.10;90.30;;;;;;1927806;74;21033;-60
2022/10/04 04:47:39;;;;;;;2.42;1.72;;;14.10;90.30;;;;;;1927379;74;21057;-61
2022/10/04 04:50:17;;;;;;;2.87;1.90;;;14.10;90.40;;;;;;1927470;74;21103;-60
2022/10/04 04:52:52;;;;;;;2.10;1.70;;;14.10;90.50;;;;;;1896895;74;21152;-60
2022/10/04 04:55:43;;;;;;;6.25;2.42;;;14.20;90.60;;;;;;1926764;74;21033;-61
2022/10/04 04:58:24;;;;;;;5.47;2.20;;;14.30;90.60;;;;;;1927526;74;21479;-59
2022/10/04 05:01:08;;;;;;;5.78;1.90;;;14.50;90.90;;;;;;1927173;74;21110;-60
2022/10/04 05:03:37;;;;;;;2.22;1.75;;;14.70;90.50;;;;;;1927340;74;21103;-60
2022/10/04 05:06:21;;;;;;;7.87;2.20;;;14.90;90.30;;;;;;1927465;74;21099;-60
2022/10/04 05:08:51;;;;;;;8.78;2.33;;;15.10;90.10;;;;;;1927128;74;21095;-60
2022/10/04 05:11:22;;;;;;;3.58;1.70;;;15.20;89.50;;;;;;1927701;74;21025;-60
2022/10/04 05:13:55;;;;;;;1.77;1.60;;;15.40;89.40;;;;;;1927593;74;21094;-60
2022/10/04 05:16:47;;;;;;;2.35;1.62;;;15.50;89.00;;;;;;1927598;74;21437;-60
2022/10/04 05:19:26;;;;;;;6.10;1.95;;;15.60;88.80;;;;;;1851037;77;21123;-60
2022/10/04 05:21:58;;;;;;;2.92;1.67;;;15.80;88.40;;;;;;1924704;74;21043;-60
2022/10/04 05:24:36;;;;;;;2.85;1.75;;;15.90;88.30;;;;;;1924582;74;21091;-60
2022/10/04 05:27:09;;;;;;;3.95;1.70;;;16.00;88.20;;;;;;1924727;74;21107;-60
2022/10/04 05:29:41;;;;;;;3.27;1.82;;;16.10;87.90;;;;;;1924414;74;21017;-60
2022/10/04 05:32:18;;;;;;;4.20;1.95;;;16.20;87.40;;;;;;1927522;74;21191;-60
2022/10/04 05:34:49;;;;;;;2.75;2.15;;;16.30;87.10;;;;;;1926331;74;21025;-60
2022/10/04 05:37:53;;;;;;;4.00;2.15;;;16.40;86.60;;;;;;1851039;77;21546;-60
2022/10/04 05:40:35;;;;;;;3.83;1.85;;;16.40;86.60;;;;;;1924602;74;20998;-60
2022/10/04 05:43:06;;;;;;;5.08;2.30;;;16.50;86.30;;;;;;1924239;74;21084;-60
2022/10/04 05:45:36;;;;;;;5.25;2.85;;;16.50;86.50;;;;;;1919235;74;21083;-59
2022/10/04 05:48:07;;;;;;;2.67;2.37;;;16.60;86.30;;;;;;1927493;74;21029;-59
2022/10/04 05:50:39;;;;;;;11.60;2.72;;;16.60;86.10;;;;;;1851075;77;21041;-59
2022/10/04 05:53:14;;;;;;;5.08;3.30;;;16.60;86.10;;;;;;1921047;74;21499;-58
2022/10/04 05:56:00;;;;;;;8.60;4.03;;;16.60;86.00;;;;;;1896193;75;21026;-58
2022/10/04 05:58:47;;;;;;;10.40;4.05;;;16.70;86.20;;;;;;1919437;75;21042;-60
2022/10/04 06:01:34;;;;;;;11.95;6.70;;;16.70;86.00;;;;;;1919349;74;21099;-60
2022/10/04 06:04:25;;;;;;;10.88;5.78;;;16.80;85.70;;;;;;1919133;74;21210;-60
2022/10/04 06:07:18;;;;;;;7.20;3.65;;;16.80;85.60;;;;;;1919344;75;21158;-60
2022/10/04 06:10:10;;;;;;;10.40;2.60;;;16.80;85.70;;;;;;1919302;75;21029;-60
2022/10/04 06:12:54;;;;;;;4.15;2.20;;;16.90;85.80;;;;;;1919343;75;21103;-60
2022/10/04 06:15:42;;;;;;;2.67;1.60;;;17.00;85.80;;;;;;1919854;75;21177;-60
2022/10/04 06:18:36;;;;;;;3.05;1.52;;;17.00;85.70;;;;;;1919602;75;21045;-60
2022/10/04 06:21:19;;;;;;;2.65;1.35;;;17.10;85.60;;;;;;1918729;75;21535;-60
2022/10/04 06:24:13;;;;;;;3.35;1.60;;;17.20;85.50;;;;;;1919639;75;21025;-60
2022/10/04 06:26:46;;;;;;;2.40;1.72;;;17.30;85.40;;;;;;1919521;75;21026;-60
2022/10/04 06:29:23;;;;;;;6.37;1.80;;;17.40;85.20;;;;;;1919550;75;21077;-60
2022/10/04 06:32:13;;;;;;;3.50;1.90;;;17.50;85.00;;;;;;1919398;75;21538;-60
2022/10/04 06:35:07;;;;;;;3.20;2.20;;;17.50;84.90;;;;;;1918665;74;21034;-60
2022/10/04 06:37:55;;;;;;;7.92;2.05;;;17.60;84.70;;;;;;1918474;74;21022;-60
2022/10/04 06:40:33;;;;;;;4.97;2.22;;;17.70;84.70;;;;;;1919291;75;21034;-60
2022/10/04 06:43:24;;;;;;;5.72;2.55;;;17.80;84.50;;;;;;1919423;75;21017;-60
2022/10/04 06:46:13;;;;;;;5.30;2.17;;;17.90;84.40;;;;;;1919433;75;21130;-60
2022/10/04 06:48:57;;;;;;;4.53;1.92;;;17.90;84.30;;;;;;1919498;75;21677;-60
2022/10/04 06:51:44;;;;;;;8.80;3.37;;;18.00;83.90;;;;;;1864606;77;21584;-60
2022/10/04 06:54:34;;;;;;;3.92;2.30;;;18.10;83.80;;;;;;1870785;76;21563;-60
2022/10/04 06:57:31;;;;;;;4.28;2.40;;;18.20;83.80;;;;;;1887422;76;21037;-60
2022/10/04 07:00:20;;;;;;;4.72;2.20;;;18.20;83.50;;;;;;1888100;76;21132;-60
2022/10/04 07:02:55;;;;;;;2.50;2.20;;;18.30;83.30;;;;;;1888097;76;21045;-59
2022/10/04 07:05:37;;;;;;;7.37;2.62;;;18.30;83.20;;;;;;1888020;76;21507;-58
2022/10/04 07:08:37;;;;;;;4.03;1.87;;;18.40;83.00;;;;;;1887579;76;21041;-58
2022/10/04 07:11:15;;;;;;;5.90;2.62;;;18.40;83.10;;;;;;1888047;76;21026;-58
2022/10/04 07:13:55;;;;;;;8.15;2.95;;;18.50;82.90;;;;;;1887981;76;21049;-59
2022/10/04 07:16:29;;;;;;;7.67;2.85;;;18.50;82.80;;;;;;1887865;76;21034;-59
2022/10/04 07:19:04;;;;;;;7.30;2.20;;;18.60;82.90;;;;;;1887997;76;21091;-59
2022/10/04 07:21:42;;;;;;;5.05;2.30;;;18.60;82.10;;;;;;1846616;77;21064;-59
2022/10/04 07:24:14;;;;;;;5.90;1.87;;;18.70;82.20;;;;;;1887321;76;21013;-59
2022/10/04 07:26:49;;;;;;;4.60;1.57;;;18.80;81.90;;;;;;1887496;76;21106;-59
2022/10/04 07:29:40;;;;;;;2.27;1.57;;;18.90;81.80;;;;;;1887887;76;21464;-59
2022/10/04 07:32:23;;;;;;;2.75;1.52;;;19.00;81.30;;;;;;1893317;76;21025;-59
2022/10/04 07:35:16;;;;;;;1.95;1.70;;;19.10;80.80;;;;;;1893557;76;21023;-60
2022/10/04 07:37:53;;;;;;;5.33;1.90;;;19.20;80.40;;;;;;1854169;77;21078;-59
2022/10/04 07:40:28;;;;;;;4.80;2.37;;;19.30;79.80;;;;;;1854999;77;21137;-59
2022/10/04 07:43:09;;;;;;;5.67;2.40;;;19.30;79.80;;;;;;1861515;77;21114;-59
2022/10/04 07:45:41;;;;;;;3.47;1.60;;;19.40;79.60;;;;;;1890898;76;21085;-60
2022/10/04 07:48:15;;;;;;;5.42;2.02;;;19.40;78.30;;;;;;1887580;76;21152;-59
2022/10/04 07:51:02;;;;;;;11.22;2.12;;;19.40;78.80;;;;;;1860034;77;21047;-59
2022/10/04 07:53:52;;;;;;;6.85;1.85;;;19.50;79.60;;;;;;1891389;76;21570;-60
2022/10/04 07:56:26;;;;;;;3.92;1.40;;;19.50;80.00;;;;;;1886961;76;21103;-59
2022/10/04 07:59:02;;;;;;;4.53;1.65;;;19.60;79.90;;;;;;1877669;76;21050;-60
2022/10/04 08:01:34;;;;;;;2.95;1.30;;;19.60;78.90;;;;;;1828692;76;21043;-59
2022/10/04 08:04:27;;;;;;;5.70;1.30;;;19.60;79.20;;;;;;1860937;77;21097;-60
2022/10/04 08:07:01;;;;;;;3.40;1.20;;;19.60;78.40;;;;;;1891698;76;21117;-59
2022/10/04 08:09:36;;;;;;;9.28;2.02;;;19.60;78.00;;;;;;1889594;76;21144;-59
2022/10/04 08:12:15;;;;;;;2.95;1.45;;;19.60;78.70;;;;;;1876046;76;21014;-59
2022/10/04 08:14:56;;;;;;;2.65;1.50;;;19.70;79.30;;;;;;1867481;76;21037;-59
2022/10/04 08:17:40;;;;;;;2.20;1.45;;;19.70;79.30;;;;;;1860360;76;21046;-59
2022/10/04 08:20:46;;;;;;;3.40;1.80;;;19.80;79.30;;;;;;1869835;76;21112;-59
2022/10/04 08:23:32;;;;;;;1.57;1.27;;;19.90;78.90;;;;;;1858959;77;22240;-59
2022/10/04 08:26:19;;;;;;;2.55;1.25;;;20.00;78.40;;;;;;1892549;76;21491;-59
2022/10/04 08:31:58;;;;;;;9.20;2.90;;;20.10;77.40;;;;;;1864808;76;21045;-59
2022/10/04 08:34:54;;;;;;;3.47;1.30;;;20.10;77.50;;;;;;1851446;77;21038;-59
2022/10/04 08:40:44;;;;;;;5.58;1.52;;;20.30;77.50;;;;;;1838076;77;21052;-58
2022/10/04 08:43:33;;;;;;;1.82;1.47;;;20.30;77.40;;;;;;1898938;75;21057;-59
2022/10/04 08:46:24;;;;;;;1.50;1.22;;;20.30;76.80;;;;;;1899892;74;21104;-58
2022/10/04 08:49:18;;;;;;;7.47;1.67;;;20.20;75.90;;;;;;1899845;75;21041;-59
2022/10/04 08:52:12;;;;;;;2.00;1.60;;;20.20;76.10;;;;;;1899356;75;21010;-58
2022/10/04 08:55:19;;;;;;;2.55;1.40;;;20.10;76.00;;;;;;1867838;77;21062;-59
2022/10/04 08:58:04;;;;;;;3.42;1.75;;;20.10;76.10;;;;;;1867810;77;21543;-59
2022/10/04 09:00:52;;;;;;;3.92;1.57;;;20.00;75.80;;;;;;1867602;76;21555;-58
2022/10/04 09:03:34;;;;;;;3.70;1.47;;;20.00;75.90;;;;;;1867803;77;21100;-58
2022/10/04 09:06:20;;;;;;;3.60;1.70;;;20.00;75.70;;;;;;1872435;75;21021;-58
2022/10/04 09:09:09;;;;;;;3.37;1.90;;;20.00;75.80;;;;;;1754657;76;21159;-59
2022/10/04 09:11:59;;;;;;;2.75;1.30;;;20.10;75.30;;;;;;1878718;75;21070;-58
2022/10/04 09:14:55;;;;;;;2.67;1.40;;;20.20;74.80;;;;;;1879218;75;21050;-58
2022/10/04 09:17:43;;;;;;;2.53;1.83;;;20.30;74.50;;;;;;1884810;75;21198;-58
2022/10/04 09:20:30;;;;;;;2.58;1.42;;;20.30;74.80;;;;;;1883214;75;21050;-58
2022/10/04 09:22:57;;;;;;;6.05;1.40;;;20.40;74.30;;;;;;1885354;75;21001;-58
2022/10/04 09:25:55;;;;;;;3.60;1.20;;;20.50;74.40;;;;;;1899188;75;21488;-58
2022/10/04 09:28:37;;;;;;;2.85;1.47;;;20.50;73.80;;;;;;1899626;75;21111;-58
2022/10/04 09:31:20;;;;;;;5.12;1.20;;;20.50;74.10;;;;;;1897902;75;21025;-58
2022/10/04 09:34:08;;;;;;;4.15;2.10;;;20.60;73.60;;;;;;1877284;75;21055;-58
2022/10/04 09:37:04;;;;;;;2.55;1.35;;;20.50;73.40;;;;;;1826700;77;21538;-58
2022/10/04 09:39:57;;;;;;;2.70;1.20;;;20.50;73.90;;;;;;1880170;75;21214;-58
2022/10/04 09:42:32;;;;;;;2.60;1.40;;;20.50;73.60;;;;;;1896814;76;21154;-58
2022/10/04 09:45:22;;;;;;;4.22;1.10;;;20.60;74.10;;;;;;1896201;75;21092;-58
2022/10/04 09:48:12;;;;;;;4.08;1.40;;;20.60;73.80;;;;;;1904860;74;21049;-58
2022/10/04 09:50:59;;;;;;;3.58;1.75;;;20.70;74.20;;;;;;1836601;75;21148;-58
2022/10/04 09:53:45;;;;;;;2.05;1.45;;;20.70;74.30;;;;;;1886382;74;21039;-58
2022/10/04 09:56:32;;;;;;;3.62;1.10;;;20.80;74.10;;;;;;1891470;74;21438;-57
2022/10/04 09:59:27;;;;;;;3.65;1.00;;;20.80;73.60;;;;;;1881098;74;21097;-58
2022/10/04 10:02:27;;;;;;;6.30;1.02;;;20.80;72.30;;;;;;1863960;76;21041;-59
2022/10/04 10:05:10;;;;;;;1.70;1.10;;;20.90;71.60;;;;;;1864381;77;21110;-59
2022/10/04 10:08:17;;;;;;;2.35;0.88;;;20.90;71.80;;;;;;1886935;74;21033;-59
2022/10/04 10:14:33;;;;;;;7.87;1.80;;;21.10;71.40;;;;;;1891433;75;21065;-59
2022/10/04 10:17:08;;;;;;;2.85;0.80;;;21.20;71.30;;;;;;1807407;76;21231;-59
2022/10/04 10:19:59;;;;;;;1.20;0.98;;;21.10;70.60;;;;;;1896273;75;21487;-59
2022/10/04 10:22:43;;;;;;;2.25;0.90;;;21.20;70.70;;;;;;1896212;76;21045;-59
2022/10/04 10:25:17;;;;;;;4.78;1.80;;;21.30;70.30;;;;;;1895424;75;21080;-59
2022/10/04 10:27:51;;;;;;;;;;;21.40;69.80;;;;;;1899539;76;21041;-59
2022/10/04 10:30:23;;;;;;;3.47;1.00;;;21.40;66.90;;;;;;1896603;76;20116;-59
2022/10/04 10:33:10;;;;;;;2.45;0.93;;;21.50;70.00;;;;;;1896689;75;21550;-59
2022/10/04 10:35:45;;;;;;;3.52;1.57;;;21.60;69.60;;;;;;1896623;76;21032;-59
2022/10/04 10:38:31;;;;;;;9.75;2.12;;;21.60;69.50;;;;;;1896812;76;21041;-59
2022/10/04 10:41:03;;;;;;;3.72;1.60;;;21.70;68.80;;;;;;1896629;75;21495;-59
2022/10/04 10:43:49;;;;;;;2.25;1.05;;;21.80;68.60;;;;;;1887998;76;21604;-59
2022/10/04 10:46:34;;;;;;;2.65;1.22;;;21.70;68.80;;;;;;1896771;76;21123;-59
2022/10/04 10:49:15;;;;;;;3.93;1.63;;;21.80;68.90;;;;;;1895395;76;21126;-59
2022/10/04 10:52:05;;;;;;;2.40;0.90;;;21.90;69.00;;;;;;1895221;76;21025;-59
2022/10/04 10:54:53;;;;;;;1.30;1.00;;;21.80;67.60;;;;;;1895053;76;21135;-59
2022/10/04 10:57:41;;;;;;;4.17;1.40;;;21.90;67.90;;;;;;1896763;76;21099;-58
2022/10/04 11:00:26;;;;;;;1.40;0.70;;;21.80;67.70;;;;;;1896782;76;21021;-59
2022/10/04 11:03:16;;;;;;;1.50;0.80;;;21.80;67.70;;;;;;1896124;75;21057;-59
2022/10/04 11:06:00;;;;;;;2.05;0.90;;;21.90;67.20;;;;;;1896585;76;21033;-59
2022/10/04 11:08:38;;;;;;;7.97;1.30;;;21.90;67.30;;;;;;1897043;76;21005;-59
2022/10/04 11:11:16;;;;;;;3.42;1.20;;;21.80;66.30;;;;;;1896734;76;21530;-59
2022/10/04 11:13:54;;;;;;;1.25;1.10;;;21.70;66.80;;;;;;1895878;76;21554;-59
2022/10/04 11:16:38;;;;;;;6.08;1.55;;;21.60;66.80;;;;;;1895187;76;21511;-59
2022/10/04 11:19:28;;;;;;;7.25;1.12;;;21.50;67.20;;;;;;1880695;74;21136;-59
2022/10/04 11:22:06;;;;;;;3.08;1.32;;;21.40;67.30;;;;;;1862919;77;21501;-59
2022/10/04 11:24:44;;;;;;;3.90;1.62;;;21.30;66.60;;;;;;1820247;77;21137;-59
2022/10/04 11:27:27;;;;;;;4.12;1.25;;;21.30;66.60;;;;;;1862831;76;21043;-59
2022/10/04 11:30:04;;;;;;;1.98;1.10;;;21.40;67.70;;;;;;1862839;76;21137;-58
2022/10/04 11:32:58;;;;;;;3.20;1.50;;;21.40;67.60;;;;;;1894371;74;21021;-58
2022/10/04 11:35:54;;;;;;;4.20;1.02;;;21.50;66.90;;;;;;1877644;74;20999;-58
2022/10/04 11:38:26;;;;;;;3.52;1.30;;;21.60;67.00;;;;;;1900560;74;21058;-58
2022/10/04 11:41:16;;;;;;;1.77;1.07;;;21.60;65.90;;;;;;1865597;75;21094;-59
2022/10/04 11:44:14;;;;;;;3.35;1.17;;;21.60;66.00;;;;;;1873334;75;21046;-59
2022/10/04 11:47:13;;;;;;;3.92;1.57;;;21.50;67.00;;;;;;1892335;75;21437;-58
2022/10/04 11:50:00;;;;;;;4.45;1.12;;;21.50;66.50;;;;;;1884750;75;21093;-59
2022/10/04 11:52:49;;;;;;;8.40;1.57;;;21.40;67.00;;;;;;1864791;77;21054;-59
2022/10/04 11:55:34;;;;;;;5.83;1.42;;;21.30;67.10;;;;;;1880319;75;21124;-58
2022/10/04 11:58:36;;;;;;;5.97;1.95;;;21.30;67.40;;;;;;1900603;75;21025;-59
2022/10/04 12:01:41;;;;;;;3.55;1.45;;;21.30;67.60;;;;;;1900021;75;21021;-59
2022/10/04 12:04:28;;;;;;;0.80;0.72;;;21.20;67.30;;;;;;1900063;75;21021;-59
2022/10/04 12:07:30;;;;;;;1.42;1.00;;;21.20;67.20;;;;;;1899226;74;21499;-60
2022/10/04 12:10:17;;;;;;;4.00;1.40;;;21.10;67.40;;;;;;1899779;75;21005;-60
2022/10/04 12:13:06;;;;;;;2.90;1.40;;;21.10;67.70;;;;;;1900157;75;21053;-59
2022/10/04 12:15:41;;;;;;;3.45;1.10;;;21.10;67.80;;;;;;1899720;75;21186;-60
2022/10/04 12:18:44;;;;;;;2.52;1.40;;;21.10;68.10;;;;;;1899205;75;21076;-59
2022/10/04 12:21:34;;;;;;;2.52;0.98;;;21.10;67.90;;;;;;1899053;75;21030;-60
2022/10/04 12:24:32;;;;;;;2.20;1.00;;;21.20;67.60;;;;;;1884900;75;21088;-59
2022/10/04 12:27:10;;;;;;;1.60;0.80;;;21.20;67.60;;;;;;1898271;75;21080;-60
2022/10/04 12:30:03;;;;;;;1.77;1.05;;;21.30;67.40;;;;;;1897807;74;21112;-60
2022/10/04 12:33:01;;;;;;;1.10;0.90;;;21.30;67.20;;;;;;1899707;75;21561;-60
2022/10/04 12:35:51;;;;;;;3.37;1.35;;;21.40;67.30;;;;;;1899784;74;21022;-60
2022/10/04 12:38:28;;;;;;;1.37;1.10;;;21.40;66.70;;;;;;1900133;75;21029;-60
2022/10/04 12:41:10;;;;;;;3.92;0.90;;;21.40;66.20;;;;;;1897900;75;21096;-60
2022/10/04 12:44:06;;;;;;;4.67;1.10;;;21.30;66.50;;;;;;1899999;75;21045;-60
2022/10/04 12:46:47;;;;;;;1.05;0.80;;;21.30;67.30;;;;;;1899899;74;21033;-60
2022/10/04 12:49:25;;;;;;;3.83;1.22;;;21.30;66.20;;;;;;1900111;75;21479;-60
2022/10/04 12:52:06;;;;;;;2.52;1.22;;;21.20;66.10;;;;;;1880005;75;21029;-61
2022/10/04 12:54:59;;;;;;;22.05;2.45;;;21.20;66.40;;;;;;1899255;75;21025;-60
2022/10/04 12:57:50;;;;;;;4.12;1.52;;;21.10;66.70;;;;;;1899959;75;21013;-60
2022/10/04 13:00:22;;;;;;;4.65;0.90;;;21.10;66.90;;;;;;1898652;75;21114;-60
2022/10/04 13:02:57;;;;;;;2.25;0.80;;;21.00;66.90;;;;;;1899889;75;21037;-60
2022/10/04 13:05:47;;;;;;;6.80;0.80;;;21.00;67.00;;;;;;1899983;75;21045;-60
2022/10/04 13:08:53;;;;;;;4.15;1.02;;;21.00;67.10;;;;;;1899523;74;21025;-60
2022/10/04 13:11:26;;;;;;;;;;;21.00;67.30;;;;;;1902803;75;21092;-60
2022/10/04 13:14:20;;;;;;;2.50;1.00;;;20.90;67.50;;;;;;1899941;75;20135;-60
2022/10/04 13:16:59;;;;;;;23.02;6.22;;;21.00;67.70;;;;;;1900150;75;21021;-60
2022/10/04 13:19:30;;;;;;;1.17;0.95;;;21.10;67.50;;;;;;1899983;75;21476;-60
2022/10/04 13:22:36;;;;;;;7.97;1.40;;;21.10;66.70;;;;;;1899967;75;21116;-60
2022/10/04 13:25:29;;;;;;;5.25;1.50;;;21.20;66.10;;;;;;1899954;75;21069;-60
2022/10/04 13:28:21;;;;;;;3.42;1.60;;;21.20;66.40;;;;;;1898970;74;21033;-60
2022/10/04 13:31:03;;;;;;;6.85;1.60;;;21.20;66.90;;;;;;1899463;74;21515;-61
2022/10/04 13:33:54;;;;;;;8.10;2.17;;;21.10;67.40;;;;;;1899889;75;21030;-61
2022/10/04 13:36:47;;;;;;;5.58;1.57;;;21.00;67.50;;;;;;1899796;75;21550;-61
2022/10/04 13:39:54;;;;;;;8.55;1.87;;;20.80;67.70;;;;;;1878750;75;21097;-61
2022/10/04 13:42:26;;;;;;;4.40;1.50;;;20.70;68.30;;;;;;1899844;74;21174;-62
2022/10/04 13:45:10;;;;;;;9.35;2.47;;;20.70;68.90;;;;;;1899967;75;21057;-61
2022/10/04 13:47:54;;;;;;;2.60;1.37;;;20.60;69.30;;;;;;1899279;74;21558;-61
2022/10/04 13:50:38;;;;;;;4.78;2.45;;;20.60;70.10;;;;;;1898531;75;21083;-60
2022/10/04 13:57:00;;;;;;;5.15;2.12;;;20.50;70.70;;;;;;1899830;75;21139;-60
2022/10/04 13:59:53;;;;;;;4.62;2.35;;;20.50;71.00;;;;;;1899852;75;21088;-60
2022/10/04 14:02:57;;;;;;;8.70;2.20;;;20.40;71.40;;;;;;1898944;74;21135;-60
2022/10/04 14:05:36;;;;;;;7.33;2.47;;;20.30;71.60;;;;;;1899818;75;21022;-60
2022/10/04 14:08:11;;;;;;;2.30;1.50;;;20.30;72.10;;;;;;1899830;75;21049;-60
2022/10/04 14:11:15;;;;;;;5.22;1.72;;;20.20;72.50;;;;;;1899557;75;21053;-60
2022/10/04 14:13:50;;;;;;;9.65;3.92;;;20.20;72.80;;;;;;1899918;75;21041;-60
2022/10/04 14:16:51;;;;;;;14.28;5.42;;;20.10;73.10;;;;;;1899900;75;21495;-60